Time;durP1;ratioP1;P1;durP2;ratioP2;P2;SDS_P1;SDS_P2;PMS_P1;PMS_P2;Temp;Humidity;BMP_temperature;BMP_pressure;BME280_temperature;BME280_humidity;BME280_pressure;Samples;Min_cycle;Max_cycle;Signal;HPM_P1;HPM_P2
2020/12/16 00:01:34;;;;;;;;;;;;;;;;;;5048951;28;25084;-83
2020/12/16 00:04:01;;;;;;;;;;;;;;;;;;5046120;28;19943;-84
2020/12/16 00:06:27;;;;;;;;;;;;;;;;;;5037784;28;20285;-86
2020/12/16 00:08:53;;;;;;;;;;;;;;;;;;5043901;28;19921;-85
2020/12/16 00:11:20;;;;;;;;;;;;;;;;;;5038885;28;19932;-84
2020/12/16 00:13:46;;;;;;;;;;;;;;;;;;5041015;28;19973;-85
2020/12/16 00:16:12;;;;;;;;;;;;;;;;;;5042873;28;19921;-85
2020/12/16 00:18:39;;;;;;;;;;;;;;;;;;5039978;28;20659;-85
2020/12/16 00:21:05;;;;;;;;;;;;;;;;;;5036668;28;20474;-84
2020/12/16 00:23:32;;;;;;;;;;;;;;;;;;5036974;28;20414;-85
2020/12/16 00:25:58;;;;;;;;;;;;;;;;;;5030739;28;20438;-84
2020/12/16 00:28:24;;;;;;;;;;;;;;;;;;5034010;28;20382;-86
2020/12/16 00:30:51;;;;;;;;;;;;;;;;;;5055590;28;20367;-85
2020/12/16 00:33:17;;;;;;;;;;;;;;;;;;5043960;28;20417;-85
2020/12/16 00:35:44;;;;;;;;;;;;;;;;;;5030489;28;21664;-85
2020/12/16 00:38:10;;;;;;;;;;;;;;;;;;5044989;28;20430;-85
2020/12/16 00:40:36;;;;;;;;;;;;;;;;;;5039815;28;25076;-85
2020/12/16 00:43:03;;;;;;;;;;;;;;;;;;5042917;28;21305;-85
2020/12/16 00:45:29;;;;;;;;;;;;;;;;;;5046078;28;25074;-85
2020/12/16 00:47:56;;;;;;;;;;;;;;;;;;5032435;28;25095;-85
2020/12/16 00:50:22;;;;;;;;;;;;;;;;;;5032498;28;25083;-85
2020/12/16 00:52:48;;;;;;;;;;;;;;;;;;5042612;28;20498;-85
2020/12/16 00:55:15;;;;;;;;;;;;;;;;;;5030809;28;25079;-85
2020/12/16 00:57:41;;;;;;;;;;;;;;;;;;5027521;28;21442;-85
2020/12/16 01:00:07;;;;;;;;;;;;;;;;;;5039593;28;21893;-85
2020/12/16 01:02:34;;;;;;;;;;;;;;;;;;5039239;28;20294;-86
2020/12/16 01:05:00;;;;;;;;;;;;;;;;;;5045330;28;20441;-85
2020/12/16 01:07:27;;;;;;;;;;;;;;;;;;5029350;28;21590;-85
2020/12/16 01:09:53;;;;;;;;;;;;;;;;;;5037008;28;21552;-85
2020/12/16 01:12:19;;;;;;;;;;;;;;;;;;5045524;28;21535;-86
2020/12/16 01:14:46;;;;;;;;;;;;;;;;;;5037765;28;20374;-86
2020/12/16 01:17:12;;;;;;;;;;;;;;;;;;5037663;28;20449;-86
2020/12/16 01:19:38;;;;;;;;;;;;;;;;;;5046588;28;20387;-85
2020/12/16 01:22:05;;;;;;;;;;;;;;;;;;5047778;28;21449;-85
2020/12/16 01:24:31;;;;;;;;;;;;;;;;;;5039446;28;21395;-85
2020/12/16 01:26:58;;;;;;;;;;;;;;;;;;5048067;28;25141;-85
2020/12/16 01:29:24;;;;;;;;;;;;;;;;;;5085497;28;21350;-85
2020/12/16 01:31:53;;;;;;;;;;;;;;;;;;5052419;28;25066;-84
2020/12/16 01:34:19;;;;;;;;;;;;;;;;;;5043376;28;20113;-82
2020/12/16 01:36:46;;;;;;;;;;;;;;;;;;5089978;27;25063;-84
2020/12/16 01:39:12;;;;;;;;;;;;;;;;;;5044523;28;21421;-84
2020/12/16 01:41:39;;;;;;;;;;;;;;;;;;5048513;28;19917;-83
2020/12/16 01:44:05;;;;;;;;;;;;;;;;;;5043183;28;25070;-84
2020/12/16 01:46:31;;;;;;;;;;;;;;;;;;5031210;28;25068;-83
2020/12/16 01:48:58;;;;;;;;;;;;;;;;;;5038461;28;25138;-83
2020/12/16 01:51:24;;;;;;;;;;;;;;;;;;5043810;28;25082;-84
2020/12/16 01:53:50;;;;;;;;;;;;;;;;;;5040442;28;25148;-84
2020/12/16 01:56:17;;;;;;;;;;;;;;;;;;5032257;28;19922;-83
2020/12/16 01:58:43;;;;;;;;;;;;;;;;;;5041122;28;20282;-84
2020/12/16 02:01:10;;;;;;;;;;;;;;;;;;5041375;28;20461;-83
2020/12/16 02:03:36;;;;;;;;;;;;;;;;;;5041039;28;20475;-84
2020/12/16 02:06:02;;;;;;;;;;;;;;;;;;5042234;28;20388;-85
2020/12/16 02:08:29;;;;;;;;;;;;;;;;;;5050373;28;21761;-83
2020/12/16 02:10:55;;;;;;;;;;;;;;;;;;5042694;28;20965;-84
2020/12/16 02:13:21;;;;;;;;;;;;;;;;;;5028016;28;25077;-84
2020/12/16 02:15:48;;;;;;;;;;;;;;;;;;5079782;22;25112;-83
2020/12/16 02:18:14;;;;;;;;;;;;;;;;;;5118097;28;20889;-82
2020/12/16 02:20:41;;;;;;;;;;;;;;;;;;5123102;27;21049;-82
2020/12/16 02:23:07;;;;;;;;;;;;;;;;;;5129766;27;25079;-82
2020/12/16 02:25:34;;;;;;;;;;;;;;;;;;5119744;28;25103;-82
2020/12/16 02:28:00;;;;;;;;;;;;;;;;;;5120226;28;25089;-83
2020/12/16 02:30:27;;;;;;;;;;;;;;;;;;5119534;28;25074;-82
2020/12/16 02:32:53;;;;;;;;;;;;;;;;;;5120809;28;25074;-85
2020/12/16 02:35:19;;;;;;;;;;;;;;;;;;5121025;28;20116;-83
2020/12/16 02:37:46;;;;;;;;;;;;;;;;;;5135572;27;25052;-82
2020/12/16 02:40:12;;;;;;;;;;;;;;;;;;5140333;27;25086;-82
2020/12/16 02:42:38;;;;;;;;;;;;;;;;;;5140659;27;19903;-83
2020/12/16 02:45:05;;;;;;;;;;;;;;;;;;5124613;28;19920;-85
2020/12/16 02:47:31;;;;;;;;;;;;;;;;;;5139708;28;19925;-83
2020/12/16 02:49:58;;;;;;;;;;;;;;;;;;5139996;28;20240;-84
2020/12/16 02:52:24;;;;;;;;;;;;;;;;;;5125071;28;20376;-85
2020/12/16 02:54:51;;;;;;;;;;;;;;;;;;5120555;28;21822;-84
2020/12/16 02:57:17;;;;;;;;;;;;;;;;;;5120171;28;20369;-85
2020/12/16 02:59:43;;;;;;;;;;;;;;;;;;5120393;28;22127;-85
2020/12/16 03:02:10;;;;;;;;;;;;;;;;;;5127784;28;20371;-84
2020/12/16 03:04:36;;;;;;;;;;;;;;;;;;5134191;28;20388;-84
2020/12/16 03:07:02;;;;;;;;;;;;;;;;;;5133885;28;22070;-81
2020/12/16 03:09:29;;;;;;;;;;;;;;;;;;5133946;28;21176;-84
2020/12/16 03:11:55;;;;;;;;;;;;;;;;;;5135181;28;25073;-83
2020/12/16 03:14:22;;;;;;;;;;;;;;;;;;5133339;28;19920;-84
2020/12/16 03:16:48;;;;;;;;;;;;;;;;;;5121361;28;26136;-85
2020/12/16 03:19:15;;;;;;;;;;;;;;;;;;5119770;28;21210;-85
2020/12/16 03:21:42;;;;;;;;;;;;;;;;;;5121158;28;21552;-85
2020/12/16 03:24:08;;;;;;;;;;;;;;;;;;5119712;28;25124;-85
2020/12/16 03:26:35;;;;;;;;;;;;;;;;;;5118442;28;21325;-85
2020/12/16 03:29:01;;;;;;;;;;;;;;;;;;5119561;28;21700;-85
2020/12/16 03:31:27;;;;;;;;;;;;;;;;;;5114519;28;21500;-82
2020/12/16 03:33:54;;;;;;;;;;;;;;;;;;5118499;28;21310;-85
2020/12/16 03:36:20;;;;;;;;;;;;;;;;;;5110060;28;26137;-85
2020/12/16 03:38:46;;;;;;;;;;;;;;;;;;5118941;28;25082;-84
2020/12/16 03:41:13;;;;;;;;;;;;;;;;;;5112395;28;25082;-85
2020/12/16 03:43:39;;;;;;;;;;;;;;;;;;5116593;28;20654;-85
2020/12/16 03:46:05;;;;;;;;;;;;;;;;;;5112817;28;20287;-85
2020/12/16 03:48:32;;;;;;;;;;;;;;;;;;5103348;28;22402;-85
2020/12/16 03:50:58;;;;;;;;;;;;;;;;;;5114908;28;22295;-86
2020/12/16 03:53:25;;;;;;;;;;;;;;;;;;5119342;28;20715;-85
2020/12/16 03:55:53;;;;;;;;;;;;;;;;;;5128987;28;20458;-85
2020/12/16 03:58:20;;;;;;;;;;;;;;;;;;5126470;28;22553;-85
2020/12/16 04:00:46;;;;;;;;;;;;;;;;;;5119249;28;21283;-84
2020/12/16 04:03:13;;;;;;;;;;;;;;;;;;5110534;28;20860;-85
2020/12/16 04:05:39;;;;;;;;;;;;;;;;;;5107249;28;25054;-84
2020/12/16 04:08:05;;;;;;;;;;;;;;;;;;5118489;28;25119;-84
2020/12/16 04:10:32;;;;;;;;;;;;;;;;;;5139140;27;25064;-82
2020/12/16 04:12:58;;;;;;;;;;;;;;;;;;5129746;28;20052;-80
2020/12/16 04:15:24;;;;;;;;;;;;;;;;;;5118848;28;25077;-79
2020/12/16 04:17:51;;;;;;;;;;;;;;;;;;5137092;28;19919;-80
2020/12/16 04:20:17;;;;;;;;;;;;;;;;;;5124376;28;19919;-84
2020/12/16 04:22:43;;;;;;;;;;;;;;;;;;5134339;28;20287;-86
2020/12/16 04:25:10;;;;;;;;;;;;;;;;;;5122525;28;20383;-85
2020/12/16 04:27:36;;;;;;;;;;;;;;;;;;5122807;28;25062;-86
2020/12/16 04:30:03;;;;;;;;;;;;;;;;;;5123155;28;25070;-86
2020/12/16 04:32:29;;;;;;;;;;;;;;;;;;5123276;28;20139;-86
2020/12/16 04:34:55;;;;;;;;;;;;;;;;;;5125263;28;25074;-85
2020/12/16 04:37:22;;;;;;;;;;;;;;;;;;5121018;28;20623;-86
2020/12/16 04:39:48;;;;;;;;;;;;;;;;;;5124369;28;25065;-85
2020/12/16 04:42:14;;;;;;;;;;;;;;;;;;5128353;28;20214;-85
2020/12/16 04:44:41;;;;;;;;;;;;;;;;;;5123077;28;25124;-85
2020/12/16 04:47:07;;;;;;;;;;;;;;;;;;5126200;28;20142;-85
2020/12/16 04:49:33;;;;;;;;;;;;;;;;;;5124530;28;19920;-85
2020/12/16 04:52:00;;;;;;;;;;;;;;;;;;5127745;28;20064;-86
2020/12/16 04:54:28;;;;;;;;;;;;;;;;;;5127197;28;25064;-85
2020/12/16 04:56:54;;;;;;;;;;;;;;;;;;5128309;28;20021;-85
2020/12/16 04:59:21;;;;;;;;;;;;;;;;;;5128350;28;20055;-85
2020/12/16 05:01:47;;;;;;;;;;;;;;;;;;5128648;28;20055;-85
2020/12/16 05:04:13;;;;;;;;;;;;;;;;;;5128190;28;20344;-83
2020/12/16 05:06:40;;;;;;;;;;;;;;;;;;5127104;28;20120;-83
2020/12/16 05:09:06;;;;;;;;;;;;;;;;;;5131704;27;25065;-83
2020/12/16 05:11:33;;;;;;;;;;;;;;;;;;5129582;27;20010;-83
2020/12/16 05:13:59;;;;;;;;;;;;;;;;;;5127821;28;19920;-83
2020/12/16 05:16:25;;;;;;;;;;;;;;;;;;5127262;28;20072;-84
2020/12/16 05:18:52;;;;;;;;;;;;;;;;;;5127863;28;20072;-84
2020/12/16 05:21:18;;;;;;;;;;;;;;;;;;5126456;28;19919;-84
2020/12/16 05:23:45;;;;;;;;;;;;;;;;;;5118352;28;20212;-84
2020/12/16 05:26:11;;;;;;;;;;;;;;;;;;5123511;28;19949;-82
2020/12/16 05:28:37;;;;;;;;;;;;;;;;;;5127701;28;19919;-84
2020/12/16 05:31:04;;;;;;;;;;;;;;;;;;5128818;28;25071;-84
2020/12/16 05:33:30;;;;;;;;;;;;;;;;;;5129115;28;20039;-86
2020/12/16 05:35:56;;;;;;;;;;;;;;;;;;5132829;28;19920;-85
2020/12/16 05:38:23;;;;;;;;;;;;;;;;;;5137824;28;20062;-84
2020/12/16 05:40:49;;;;;;;;;;;;;;;;;;5139004;28;20033;-80
2020/12/16 05:43:16;;;;;;;;;;;;;;;;;;5134001;28;20049;-82
2020/12/16 05:45:42;;;;;;;;;;;;;;;;;;5137321;28;19920;-81
2020/12/16 05:48:08;;;;;;;;;;;;;;;;;;5137931;28;20083;-81
2020/12/16 05:50:35;;;;;;;;;;;;;;;;;;5137384;28;25060;-83
2020/12/16 05:53:01;;;;;;;;;;;;;;;;;;5138371;28;19907;-82
2020/12/16 05:55:28;;;;;;;;;;;;;;;;;;5139643;27;20059;-81
2020/12/16 05:57:54;;;;;;;;;;;;;;;;;;5141611;28;20053;-80
2020/12/16 06:00:22;;;;;;;;;;;;;;;;;;5141474;27;20072;-82
2020/12/16 06:02:48;;;;;;;;;;;;;;;;;;5139016;28;19920;-82
2020/12/16 06:05:14;;;;;;;;;;;;;;;;;;5131136;28;20109;-85
2020/12/16 06:07:41;;;;;;;;;;;;;;;;;;5120227;28;25061;-82
2020/12/16 06:10:07;;;;;;;;;;;;;;;;;;5120979;28;20127;-84
2020/12/16 06:12:34;;;;;;;;;;;;;;;;;;5120733;28;20062;-83
2020/12/16 06:15:00;;;;;;;;;;;;;;;;;;5120399;28;24074;-84
2020/12/16 06:17:26;;;;;;;;;;;;;;;;;;5129591;28;19928;-83
2020/12/16 06:19:53;;;;;;;;;;;;;;;;;;5126671;28;20246;-85
2020/12/16 06:22:19;;;;;;;;;;;;;;;;;;5120462;28;20439;-82
2020/12/16 06:24:46;;;;;;;;;;;;;;;;;;5119051;28;25098;-84
2020/12/16 06:27:12;;;;;;;;;;;;;;;;;;5120226;28;25067;-84
2020/12/16 06:29:39;;;;;;;;;;;;;;;;;;5119235;28;25134;-84
2020/12/16 06:32:05;;;;;;;;;;;;;;;;;;5119110;28;20193;-86
2020/12/16 06:34:31;;;;;;;;;;;;;;;;;;5119124;28;25082;-84
2020/12/16 06:36:58;;;;;;;;;;;;;;;;;;5118106;28;20136;-82
2020/12/16 06:39:24;;;;;;;;;;;;;;;;;;5118683;28;20068;-82
2020/12/16 06:41:50;;;;;;;;;;;;;;;;;;5118317;28;20054;-83
2020/12/16 06:44:17;;;;;;;;;;;;;;;;;;5119305;28;20077;-87
2020/12/16 06:46:43;;;;;;;;;;;;;;;;;;5120975;28;25149;-85
2020/12/16 06:49:10;;;;;;;;;;;;;;;;;;5118322;27;19919;-84
2020/12/16 06:51:36;;;;;;;;;;;;;;;;;;5118969;28;20355;-85
2020/12/16 06:54:02;;;;;;;;;;;;;;;;;;5119247;28;20144;-86
2020/12/16 06:56:29;;;;;;;;;;;;;;;;;;5119216;28;20385;-83
2020/12/16 06:58:55;;;;;;;;;;;;;;;;;;5121718;28;19934;-85
2020/12/16 07:01:22;;;;;;;;;;;;;;;;;;5138580;28;20130;-84
2020/12/16 07:03:48;;;;;;;;;;;;;;;;;;5136493;28;20017;-82
2020/12/16 07:06:14;;;;;;;;;;;;;;;;;;5126610;28;20106;-84
2020/12/16 07:08:41;;;;;;;;;;;;;;;;;;5120299;28;25145;-83
2020/12/16 07:11:08;;;;;;;;;;;;;;;;;;5120418;28;20039;-84
2020/12/16 07:13:34;;;;;;;;;;;;;;;;;;5117143;28;19927;-82
2020/12/16 07:16:01;;;;;;;;;;;;;;;;;;5120727;28;20106;-84
2020/12/16 07:18:27;;;;;;;;;;;;;;;;;;5119170;28;20138;-85
2020/12/16 07:20:54;;;;;;;;;;;;;;;;;;5120981;28;20054;-83
2020/12/16 07:23:20;;;;;;;;;;;;;;;;;;5118585;28;24071;-84
2020/12/16 07:25:46;;;;;;;;;;;;;;;;;;5118964;28;19968;-84
2020/12/16 07:28:13;;;;;;;;;;;;;;;;;;5118809;28;19983;-83
2020/12/16 07:30:39;;;;;;;;;;;;;;;;;;5119836;28;20089;-84
2020/12/16 07:33:06;;;;;;;;;;;;;;;;;;5106627;28;20026;-83
2020/12/16 07:35:32;;;;;;;;;;;;;;;;;;5138376;27;20030;-86
2020/12/16 07:37:58;;;;;;;;;;;;;;;;;;5138962;27;20008;-84
2020/12/16 07:40:25;;;;;;;;;;;;;;;;;;5133382;27;20469;-85
2020/12/16 07:42:51;;;;;;;;;;;;;;;;;;5125654;28;20002;-84
2020/12/16 07:45:18;;;;;;;;;;;;;;;;;;5119661;28;19942;-84
2020/12/16 07:47:44;;;;;;;;;;;;;;;;;;5118639;28;19927;-84
2020/12/16 07:50:10;;;;;;;;;;;;;;;;;;5116430;28;20419;-85
2020/12/16 07:52:37;;;;;;;;;;;;;;;;;;5119817;28;20010;-84
2020/12/16 07:55:03;;;;;;;;;;;;;;;;;;5117981;28;20047;-84
2020/12/16 07:57:30;;;;;;;;;;;;;;;;;;5117187;28;20042;-85
2020/12/16 07:59:56;;;;;;;;;;;;;;;;;;5119265;28;19931;-84
2020/12/16 08:02:22;;;;;;;;;;;;;;;;;;5119501;28;19927;-83
2020/12/16 08:04:49;;;;;;;;;;;;;;;;;;5117267;28;19919;-84
2020/12/16 08:07:15;;;;;;;;;;;;;;;;;;5118534;28;19926;-84
2020/12/16 08:09:42;;;;;;;;;;;;;;;;;;5112956;28;19999;-83
2020/12/16 08:12:08;;;;;;;;;;;;;;;;;;5115475;28;20372;-82
2020/12/16 08:14:35;;;;;;;;;;;;;;;;;;5125031;27;19920;-83
2020/12/16 08:17:01;;;;;;;;;;;;;;;;;;5118914;28;20844;-83
2020/12/16 08:19:27;;;;;;;;;;;;;;;;;;5120962;28;19919;-84
2020/12/16 08:21:54;;;;;;;;;;;;;;;;;;5120073;28;19920;-85
2020/12/16 08:24:20;;;;;;;;;;;;;;;;;;5130463;28;19911;-84
2020/12/16 08:26:46;;;;;;;;;;;;;;;;;;5121454;28;19911;-86
2020/12/16 08:29:13;;;;;;;;;;;;;;;;;;5121692;28;19920;-80
2020/12/16 08:31:39;;;;;;;;;;;;;;;;;;5115148;28;19931;-82
2020/12/16 08:34:06;;;;;;;;;;;;;;;;;;5114772;28;19976;-84
2020/12/16 08:36:32;;;;;;;;;;;;;;;;;;5128987;28;19903;-83
2020/12/16 08:38:58;;;;;;;;;;;;;;;;;;5131845;28;19972;-83
2020/12/16 08:41:25;;;;;;;;;;;;;;;;;;5139721;22;19904;-84
2020/12/16 08:43:54;;;;;;;;;;;;;;;;;;5120883;28;20056;-84
2020/12/16 08:46:21;;;;;;;;;;;;;;;;;;5120715;28;19908;-83
2020/12/16 08:48:47;;;;;;;;;;;;;;;;;;5121470;28;19965;-83
2020/12/16 08:51:15;;;;;;;;;;;;;;;;;;5120784;28;19979;-84
2020/12/16 08:53:41;;;;;;;;;;;;;;;;;;5116710;28;19924;-87
2020/12/16 08:56:08;;;;;;;;;;;;;;;;;;5094982;28;19920;-87
2020/12/16 08:58:34;;;;;;;;;;;;;;;;;;5097963;28;19928;-87
2020/12/16 09:01:02;;;;;;;;;;;;;;;;;;5085419;28;19913;-83
2020/12/16 09:03:29;;;;;;;;;;;;;;;;;;5081748;28;19912;-85
2020/12/16 09:05:55;;;;;;;;;;;;;;;;;;5081154;28;19931;-84
2020/12/16 09:08:23;;;;;;;;;;;;;;;;;;5081335;28;19905;-85
2020/12/16 09:10:51;;;;;;;;;;;;;;;;;;5096748;28;19920;-84
2020/12/16 09:13:18;;;;;;;;;;;;;;;;;;5101110;28;19904;-83
2020/12/16 09:15:44;;;;;;;;;;;;;;;;;;5101537;28;19904;-83
2020/12/16 09:18:11;;;;;;;;;;;;;;;;;;5101390;28;19916;-81
2020/12/16 09:20:37;;;;;;;;;;;;;;;;;;5101125;28;19911;-82
2020/12/16 09:23:04;;;;;;;;;;;;;;;;;;5101051;28;19955;-86
2020/12/16 09:25:30;;;;;;;;;;;;;;;;;;5101018;28;19924;-83
2020/12/16 09:27:57;;;;;;;;;;;;;;;;;;5100995;28;19920;-86
2020/12/16 09:30:23;;;;;;;;;;;;;;;;;;5101318;28;19976;-85
2020/12/16 09:32:50;;;;;;;;;;;;;;;;;;5100642;28;19926;-87
2020/12/16 09:35:16;;;;;;;;;;;;;;;;;;5088217;28;19920;-87
2020/12/16 09:37:42;;;;;;;;;;;;;;;;;;5084283;28;20336;-86
2020/12/16 09:40:09;;;;;;;;;;;;;;;;;;5084077;28;19942;-87
2020/12/16 09:42:38;;;;;;;;;;;;;;;;;;5084615;28;20304;-87
2020/12/16 09:45:04;;;;;;;;;;;;;;;;;;5067502;28;19992;-87
2020/12/16 09:47:30;;;;;;;;;;;;;;;;;;5084577;28;19920;-85
2020/12/16 09:49:58;;;;;;;;;;;;;;;;;;5087335;28;19974;-87
2020/12/16 09:52:24;;;;;;;;;;;;;;;;;;5085749;28;19920;-85
2020/12/16 09:54:51;;;;;;;;;;;;;;;;;;5095747;28;19912;-82
2020/12/16 09:57:17;;;;;;;;;;;;;;;;;;5087264;28;19905;-88
2020/12/16 09:59:44;;;;;;;;;;;;;;;;;;5083487;28;20376;-85
2020/12/16 10:02:10;;;;;;;;;;;;;;;;;;5080941;28;19946;-86
2020/12/16 10:04:37;;;;;;;;;;;;;;;;;;5076331;28;19924;-86
2020/12/16 10:07:03;;;;;;;;;;;;;;;;;;5079194;28;19921;-86
2020/12/16 10:09:29;;;;;;;;;;;;;;;;;;5082315;28;19921;-85
2020/12/16 10:11:56;;;;;;;;;;;;;;;;;;5098471;28;19911;-85
2020/12/16 10:14:22;;;;;;;;;;;;;;;;;;5093928;28;19908;-83
2020/12/16 10:16:48;;;;;;;;;;;;;;;;;;5097437;28;19904;-83
2020/12/16 10:19:16;;;;;;;;;;;;;;;;;;5087194;28;19955;-86
2020/12/16 10:21:42;;;;;;;;;;;;;;;;;;5091141;28;19999;-86
2020/12/16 10:24:08;;;;;;;;;;;;;;;;;;5090682;28;19924;-87
2020/12/16 10:26:35;;;;;;;;;;;;;;;;;;5090138;28;19921;-87
2020/12/16 10:29:01;;;;;;;;;;;;;;;;;;5100421;28;19924;-86
2020/12/16 10:31:28;;;;;;;;;;;;;;;;;;5094977;28;20277;-85
2020/12/16 10:33:54;;;;;;;;;;;;;;;;;;5091743;28;19963;-83
2020/12/16 10:36:20;;;;;;;;;;;;;;;;;;5092644;28;19926;-84
2020/12/16 10:38:47;;;;;;;;;;;;;;;;;;5103153;28;19958;-83
2020/12/16 10:41:14;;;;;;;;;;;;;;;;;;5098418;28;20000;-87
2020/12/16 10:43:40;;;;;;;;;;;;;;;;;;5096681;28;20017;-86
2020/12/16 10:46:06;;;;;;;;;;;;;;;;;;5095582;28;25057;-83
2020/12/16 10:51:17;;;;;;;;;;;;;;;;;;5077146;28;20035;-86
2020/12/16 10:53:44;;;;;;;;;;;;;;;;;;5075041;28;25078;-84
2020/12/16 10:56:23;;;;;;;;;;;;;;;;;;5082848;28;21008;-84
2020/12/16 10:58:50;;;;;;;;;;;;;;;;;;5090269;28;25077;-84
2020/12/16 11:01:16;;;;;;;;;;;;;;;;;;5091979;28;25050;-83
2020/12/16 11:03:42;;;;;;;;;;;;;;;;;;5086407;28;25074;-86
2020/12/16 11:06:09;;;;;;;;;;;;;;;;;;5094770;28;25056;-85
2020/12/16 11:08:35;;;;;;;;;;;;;;;;;;5086703;28;25075;-87
2020/12/16 11:11:02;;;;;;;;;;;;;;;;;;5077795;28;25067;-87
2020/12/16 11:13:28;;;;;;;;;;;;;;;;;;5067934;28;20267;-86
2020/12/16 11:15:55;;;;;;;;;;;;;;;;;;5079768;28;25063;-86
2020/12/16 11:18:21;;;;;;;;;;;;;;;;;;5071972;28;25126;-85
2020/12/16 11:20:48;;;;;;;;;;;;;;;;;;5079907;28;20324;-87
2020/12/16 11:25:58;;;;;;;;;;;;;;;;;;5068888;28;20069;-84
2020/12/16 11:28:25;;;;;;;;;;;;;;;;;;5084297;28;25088;-86
2020/12/16 11:30:51;;;;;;;;;;;;;;;;;;5082946;28;20260;-86
2020/12/16 11:33:18;;;;;;;;;;;;;;;;;;5086683;28;25065;-86
2020/12/16 11:35:44;;;;;;;;;;;;;;;;;;5091686;28;20108;-86
2020/12/16 11:38:11;;;;;;;;;;;;;;;;;;5092089;28;25082;-87
2020/12/16 11:40:37;;;;;;;;;;;;;;;;;;5091539;28;20103;-85
2020/12/16 11:43:06;;;;;;;;;;;;;;;;;;5089443;28;20019;-82
2020/12/16 11:45:33;;;;;;;;;;;;;;;;;;5085320;28;25096;-84
2020/12/16 11:48:01;;;;;;;;;;;;;;;;;;5092475;28;19947;-83
2020/12/16 11:50:27;;;;;;;;;;;;;;;;;;5091884;28;19924;-85
2020/12/16 11:52:54;;;;;;;;;;;;;;;;;;5080290;28;19920;-84
2020/12/16 11:55:20;;;;;;;;;;;;;;;;;;5080945;28;19921;-84
2020/12/16 11:57:47;;;;;;;;;;;;;;;;;;5086908;28;19928;-84
2020/12/16 12:00:13;;;;;;;;;;;;;;;;;;5085588;28;19924;-84
2020/12/16 12:02:39;;;;;;;;;;;;;;;;;;5088368;28;21145;-85
2020/12/16 12:05:06;;;;;;;;;;;;;;;;;;5085499;28;19982;-84
2020/12/16 12:07:32;;;;;;;;;;;;;;;;;;5080056;28;19927;-85
2020/12/16 12:09:59;;;;;;;;;;;;;;;;;;5090717;28;19949;-84
2020/12/16 12:12:25;;;;;;;;;;;;;;;;;;5083370;28;20015;-86
2020/12/16 12:14:52;;;;;;;;;;;;;;;;;;5084748;28;19924;-87
2020/12/16 12:17:18;;;;;;;;;;;;;;;;;;5069836;28;19921;-84
2020/12/16 12:19:45;;;;;;;;;;;;;;;;;;5095759;28;19920;-84
2020/12/16 12:22:11;;;;;;;;;;;;;;;;;;5099199;28;19932;-84
2020/12/16 12:27:25;;;;;;;;;;;;;;;;;;5083167;28;19916;-83
2020/12/16 12:29:52;;;;;;;;;;;;;;;;;;5085630;28;19921;-83
2020/12/16 12:35:03;;;;;;;;;;;;;;;;;;5089099;28;19915;-83
2020/12/16 12:37:29;;;;;;;;;;;;;;;;;;5086674;28;19921;-85
2020/12/16 12:39:56;;;;;;;;;;;;;;;;;;5099263;28;19904;-84
2020/12/16 12:42:22;;;;;;;;;;;;;;;;;;5101427;28;19924;-84
2020/12/16 12:44:49;;;;;;;;;;;;;;;;;;5089335;28;19921;-84
2020/12/16 12:47:15;;;;;;;;;;;;;;;;;;5086900;28;19977;-84
2020/12/16 12:49:42;;;;;;;;;;;;;;;;;;5095267;28;19924;-84
2020/12/16 12:52:08;;;;;;;;;;;;;;;;;;5099907;28;19911;-84
2020/12/16 12:54:34;;;;;;;;;;;;;;;;;;5085251;28;19921;-83
2020/12/16 12:57:01;;;;;;;;;;;;;;;;;;5088422;28;19924;-83
2020/12/16 12:59:27;;;;;;;;;;;;;;;;;;5085552;28;19960;-84
2020/12/16 13:01:54;;;;;;;;;;;;;;;;;;5091007;28;19920;-83
2020/12/16 13:04:20;;;;;;;;;;;;;;;;;;5093822;28;19924;-84
2020/12/16 13:06:46;;;;;;;;;;;;;;;;;;5088665;28;19921;-83
2020/12/16 13:09:13;;;;;;;;;;;;;;;;;;5087501;28;19936;-83
2020/12/16 13:11:40;;;;;;;;;;;;;;;;;;5087057;28;19920;-83
2020/12/16 13:14:06;;;;;;;;;;;;;;;;;;5092918;28;19905;-84
2020/12/16 13:16:32;;;;;;;;;;;;;;;;;;5105868;28;19926;-85
2020/12/16 13:18:59;;;;;;;;;;;;;;;;;;5084391;28;19927;-83
2020/12/16 13:27:13;;;;;;;;;;;;;;;;;;5082470;28;19915;-83
2020/12/16 13:35:29;;;;;;;;;;;;;;;;;;5055980;28;20390;-84
2020/12/16 13:37:56;;;;;;;;;;;;;;;;;;5046440;28;19920;-87
2020/12/16 13:43:06;;;;;;;;;;;;;;;;;;5051503;28;19925;-83
2020/12/16 13:45:33;;;;;;;;;;;;;;;;;;5044541;28;19979;-84
2020/12/16 13:47:59;;;;;;;;;;;;;;;;;;5064330;28;19920;-82
2020/12/16 13:50:25;;;;;;;;;;;;;;;;;;5085016;28;19920;-83
2020/12/16 13:52:52;;;;;;;;;;;;;;;;;;5089032;28;19927;-84
2020/12/16 13:55:19;;;;;;;;;;;;;;;;;;5088998;28;20028;-83
2020/12/16 13:57:45;;;;;;;;;;;;;;;;;;5097889;28;19927;-83
2020/12/16 14:00:12;;;;;;;;;;;;;;;;;;5101567;28;19974;-83
2020/12/16 14:02:53;;;;;;;;;;;;;;;;;;5092424;28;19911;-83
2020/12/16 14:05:38;;;;;;;;;;;;;;;;;;5093657;28;19977;-84
2020/12/16 14:08:30;;;;;;;;;;;;;;;;;;5066075;28;19921;-83
2020/12/16 14:10:56;;;;;;;;;;;;;;;;;;5079429;28;19920;-86
2020/12/16 14:13:23;;;;;;;;;;;;;;;;;;5076931;28;20407;-83
2020/12/16 14:15:51;;;;;;;;;;;;;;;;;;5076218;28;19925;-82
2020/12/16 14:18:17;;;;;;;;;;;;;;;;;;5079099;28;19920;-82
2020/12/16 14:20:44;;;;;;;;;;;;;;;;;;5079868;28;19920;-81
2020/12/16 14:23:10;;;;;;;;;;;;;;;;;;5080184;28;19930;-81
2020/12/16 14:25:36;;;;;;;;;;;;;;;;;;5079242;28;19927;-82
2020/12/16 14:28:03;;;;;;;;;;;;;;;;;;5084434;28;19904;-82
2020/12/16 14:30:29;;;;;;;;;;;;;;;;;;5092622;28;19920;-83
2020/12/16 14:32:56;;;;;;;;;;;;;;;;;;5084128;28;19921;-82
2020/12/16 14:35:22;;;;;;;;;;;;;;;;;;5084830;28;19927;-82
2020/12/16 14:37:49;;;;;;;;;;;;;;;;;;5088121;28;19921;-84
2020/12/16 14:40:21;;;;;;;;;;;;;;;;;;5093733;28;19928;-83
2020/12/16 14:42:47;;;;;;;;;;;;;;;;;;5086493;28;20008;-84
2020/12/16 14:45:13;;;;;;;;;;;;;;;;;;5084406;28;19921;-82
2020/12/16 14:47:40;;;;;;;;;;;;;;;;;;5083480;28;19920;-82
2020/12/16 14:50:06;;;;;;;;;;;;;;;;;;5079005;28;19920;-82
2020/12/16 14:52:33;;;;;;;;;;;;;;;;;;5082798;28;19924;-82
2020/12/16 14:55:02;;;;;;;;;;;;;;;;;;5087675;28;20058;-84
2020/12/16 14:57:29;;;;;;;;;;;;;;;;;;5082301;28;19920;-83
2020/12/16 14:59:55;;;;;;;;;;;;;;;;;;5062709;28;19920;-83
2020/12/16 15:02:22;;;;;;;;;;;;;;;;;;5080301;28;19931;-83
2020/12/16 15:04:48;;;;;;;;;;;;;;;;;;5075266;22;19922;-83
2020/12/16 15:07:14;;;;;;;;;;;;;;;;;;4986994;28;19922;-85
2020/12/16 15:09:41;;;;;;;;;;;;;;;;;;4997318;28;19929;-84
2020/12/16 15:12:07;;;;;;;;;;;;;;;;;;4997217;28;19925;-84
2020/12/16 15:14:34;;;;;;;;;;;;;;;;;;4994488;28;20351;-84
2020/12/16 15:17:00;;;;;;;;;;;;;;;;;;4976515;28;19928;-83
2020/12/16 15:19:26;;;;;;;;;;;;;;;;;;4982242;28;19945;-83
2020/12/16 15:21:53;;;;;;;;;;;;;;;;;;4981473;28;20025;-80
2020/12/16 15:24:19;;;;;;;;;;;;;;;;;;4980205;28;19907;-83
2020/12/16 15:26:45;;;;;;;;;;;;;;;;;;4976583;28;19926;-84
2020/12/16 15:29:12;;;;;;;;;;;;;;;;;;4998707;28;19928;-84
2020/12/16 15:31:38;;;;;;;;;;;;;;;;;;4977715;28;19922;-84
2020/12/16 15:34:05;;;;;;;;;;;;;;;;;;4988344;28;20305;-84
2020/12/16 15:36:31;;;;;;;;;;;;;;;;;;4979670;28;19929;-84
2020/12/16 15:38:58;;;;;;;;;;;;;;;;;;4987772;28;19928;-83
2020/12/16 15:41:24;;;;;;;;;;;;;;;;;;4982966;28;19926;-85
2020/12/16 15:43:50;;;;;;;;;;;;;;;;;;4999294;28;19906;-83
2020/12/16 15:46:17;;;;;;;;;;;;;;;;;;5015557;28;19987;-82
2020/12/16 15:48:43;;;;;;;;;;;;;;;;;;5016075;28;19912;-82
2020/12/16 15:51:10;;;;;;;;;;;;;;;;;;5005648;28;19928;-83
2020/12/16 15:53:36;;;;;;;;;;;;;;;;;;4970541;28;19930;-83
2020/12/16 15:56:02;;;;;;;;;;;;;;;;;;4966659;28;19944;-83
2020/12/16 15:58:29;;;;;;;;;;;;;;;;;;4974465;28;19929;-82
2020/12/16 16:00:55;;;;;;;;;;;;;;;;;;4970823;28;20440;-84
2020/12/16 16:03:22;;;;;;;;;;;;;;;;;;5001418;28;19929;-83
2020/12/16 16:05:48;;;;;;;;;;;;;;;;;;4975608;28;19935;-83
2020/12/16 16:08:15;;;;;;;;;;;;;;;;;;4998676;28;19922;-84
2020/12/16 16:10:41;;;;;;;;;;;;;;;;;;4976612;28;19937;-82
2020/12/16 16:13:08;;;;;;;;;;;;;;;;;;4970591;28;19933;-82
2020/12/16 16:15:34;;;;;;;;;;;;;;;;;;4981639;28;19925;-81
2020/12/16 16:18:01;;;;;;;;;;;;;;;;;;4978658;28;19941;-83
2020/12/16 16:20:27;;;;;;;;;;;;;;;;;;4975020;28;20013;-84
2020/12/16 16:22:54;;;;;;;;;;;;;;;;;;4988263;28;19964;-85
2020/12/16 16:25:20;;;;;;;;;;;;;;;;;;4978021;28;20312;-83
2020/12/16 16:27:47;;;;;;;;;;;;;;;;;;4977221;28;19936;-85
2020/12/16 16:30:13;;;;;;;;;;;;;;;;;;4978162;28;19922;-83
2020/12/16 16:32:39;;;;;;;;;;;;;;;;;;4976370;28;19997;-85
2020/12/16 16:35:07;;;;;;;;;;;;;;;;;;4991906;28;19976;-85
2020/12/16 16:37:34;;;;;;;;;;;;;;;;;;4980189;28;19977;-84
2020/12/16 16:40:00;;;;;;;;;;;;;;;;;;4983010;28;19922;-84
2020/12/16 16:42:27;;;;;;;;;;;;;;;;;;4996372;28;19933;-84
2020/12/16 16:44:53;;;;;;;;;;;;;;;;;;4993492;28;19922;-83
2020/12/16 16:47:20;;;;;;;;;;;;;;;;;;4991298;28;19922;-82
2020/12/16 16:49:46;;;;;;;;;;;;;;;;;;5055592;28;19920;-84
2020/12/16 16:52:21;;;;;;;;;;;;;;;;;;5021944;28;19925;-83
2020/12/16 16:54:47;;;;;;;;;;;;;;;;;;5018884;28;19928;-82
2020/12/16 16:57:18;;;;;;;;;;;;;;;;;;5031992;28;19922;-83
2020/12/16 16:59:44;;;;;;;;;;;;;;;;;;4992608;28;20016;-84
2020/12/16 17:02:10;;;;;;;;;;;;;;;;;;4990102;28;19926;-84
2020/12/16 17:04:37;;;;;;;;;;;;;;;;;;5043779;28;19937;-84
2020/12/16 17:07:04;;;;;;;;;;;;;;;;;;5008652;28;19922;-84